createdAt,value
2022-08-11T00:00:14.328Z,20.20
2022-08-11T00:02:48.824Z,20.30
2022-08-11T00:05:19.977Z,20.20
2022-08-11T00:07:53.809Z,20.20
2022-08-11T00:10:23.735Z,20.10
2022-08-11T00:13:00.409Z,20.10
2022-08-11T00:15:38.421Z,20.10
2022-08-11T00:18:06.997Z,20.10
2022-08-11T00:20:38.322Z,20.00
2022-08-11T00:23:10.739Z,20.00
2022-08-11T00:25:52.159Z,19.90
2022-08-11T00:28:31.109Z,19.90
2022-08-11T00:31:04.407Z,19.90
2022-08-11T00:33:44.659Z,19.90
2022-08-11T00:36:15.878Z,19.90
2022-08-11T00:38:45.486Z,19.80
2022-08-11T00:41:58.274Z,19.80
2022-08-11T00:44:55.556Z,19.80
2022-08-11T00:47:31.212Z,19.80
2022-08-11T00:50:27.307Z,19.80
2022-08-11T00:53:08.055Z,19.70
2022-08-11T00:55:59.616Z,19.70
2022-08-11T00:59:34.438Z,19.70
2022-08-11T01:02:17.317Z,19.70
2022-08-11T01:05:21.909Z,19.60
2022-08-11T01:08:05.478Z,19.60
2022-08-11T01:11:09.523Z,19.50
2022-08-11T01:14:01.305Z,19.50
2022-08-11T01:16:41.587Z,19.50
2022-08-11T01:19:33.415Z,19.50
2022-08-11T01:22:55.647Z,19.50
2022-08-11T01:25:31.128Z,19.50
2022-08-11T01:28:35.476Z,19.40
2022-08-11T01:31:39.739Z,19.40
2022-08-11T01:34:44.411Z,19.40
2022-08-11T01:37:51.619Z,19.40
2022-08-11T01:40:44.947Z,19.30
2022-08-11T01:44:13.122Z,19.30
2022-08-11T01:47:02.601Z,19.30
2022-08-11T01:50:07.577Z,19.20
2022-08-11T01:53:04.491Z,19.20
2022-08-11T01:55:47.789Z,19.20
2022-08-11T01:58:44.166Z,19.20
2022-08-11T02:01:35.582Z,19.10
2022-08-11T02:04:11.248Z,19.10
2022-08-11T02:07:02.530Z,19.10
2022-08-11T02:09:32.442Z,19.00
2022-08-11T02:12:22.724Z,19.00
2022-08-11T02:15:05.208Z,19.00
2022-08-11T02:17:41.031Z,19.00
2022-08-11T02:20:41.517Z,19.00
2022-08-11T02:24:05.449Z,19.00
2022-08-11T02:26:50.417Z,18.90
2022-08-11T02:29:33.072Z,18.90
2022-08-11T02:32:38.030Z,18.90
2022-08-11T02:35:26.982Z,18.90
2022-08-11T02:38:11.560Z,18.80
2022-08-11T02:41:31.836Z,18.80
2022-08-11T02:44:23.442Z,18.80
2022-08-11T02:47:03.144Z,18.80
2022-08-11T02:50:02.662Z,18.80
2022-08-11T02:52:40.170Z,18.80
2022-08-11T02:55:55.691Z,18.70
2022-08-11T02:59:08.804Z,18.70
2022-08-11T03:01:49.294Z,18.70
2022-08-11T03:04:51.508Z,18.70
2022-08-11T03:07:29.665Z,18.70
2022-08-11T03:10:10.462Z,18.70
2022-08-11T03:13:15.558Z,18.70
2022-08-11T03:16:16.756Z,18.70
2022-08-11T03:19:13.009Z,18.60
2022-08-11T03:22:02.567Z,18.60
2022-08-11T03:24:49.036Z,18.60
2022-08-11T03:27:47.777Z,18.50
2022-08-11T03:30:35.610Z,18.50
2022-08-11T03:33:40.163Z,18.50
2022-08-11T03:36:11.092Z,18.40
2022-08-11T03:39:05.900Z,18.40
2022-08-11T03:42:10.377Z,18.40
2022-08-11T03:45:00.983Z,18.40
2022-08-11T03:47:55.928Z,18.40
2022-08-11T03:50:26.141Z,18.40
2022-08-11T03:53:30.795Z,18.30
2022-08-11T03:56:39.650Z,18.30
2022-08-11T03:59:30.503Z,18.30
2022-08-11T04:02:33.954Z,18.30
2022-08-11T04:05:38.433Z,18.20
2022-08-11T04:08:16.509Z,18.20
2022-08-11T04:11:18.433Z,18.20
2022-08-11T04:14:42.072Z,18.20
2022-08-11T04:17:32.451Z,18.20
2022-08-11T04:20:24.033Z,18.10
2022-08-11T04:24:35.057Z,18.10
2022-08-11T04:26:25.974Z,18.10
2022-08-11T04:29:03.445Z,18.10
2022-08-11T04:31:51.413Z,18.10
2022-08-11T04:34:34.416Z,18.00
2022-08-11T04:37:35.075Z,18.00
2022-08-11T04:40:39.643Z,18.00
2022-08-11T04:43:25.090Z,18.00
2022-08-11T04:46:23.221Z,18.00
2022-08-11T04:49:46.466Z,18.00
2022-08-11T04:52:59.962Z,17.90
2022-08-11T04:56:12.052Z,18.00
2022-08-11T04:59:09.940Z,18.00
2022-08-11T05:02:16.880Z,18.00
2022-08-11T05:05:27.830Z,18.00
2022-08-11T05:08:43.435Z,18.00
2022-08-11T05:11:57.856Z,18.20
2022-08-11T05:15:02.714Z,18.30
2022-08-11T05:18:02.964Z,18.40
2022-08-11T05:20:49.910Z,18.50
2022-08-11T05:23:39.130Z,18.60
2022-08-11T05:26:47.303Z,18.70
2022-08-11T05:29:58.782Z,18.80
2022-08-11T05:32:52.150Z,19.00
2022-08-11T05:36:02.362Z,19.10
2022-08-11T05:38:39.809Z,19.30
2022-08-11T05:41:26.092Z,19.40
2022-08-11T05:44:21.880Z,19.60
2022-08-11T05:47:09.324Z,19.70
2022-08-11T05:49:58.105Z,19.90
2022-08-11T05:52:49.126Z,20.00
2022-08-11T05:56:02.361Z,20.20
2022-08-11T05:58:42.760Z,20.30
2022-08-11T06:01:13.058Z,20.50
2022-08-11T06:04:03.753Z,20.60
2022-08-11T06:06:31.181Z,20.80
2022-08-11T06:09:01.005Z,21.00
2022-08-11T06:11:44.027Z,21.10
2022-08-11T06:14:15.573Z,21.30
2022-08-11T06:16:43.477Z,21.40
2022-08-11T06:19:10.741Z,21.60
2022-08-11T06:21:38.148Z,21.70
2022-08-11T06:24:12.558Z,21.90
2022-08-11T06:27:09.131Z,22.00
2022-08-11T06:29:47.899Z,22.20
2022-08-11T06:32:18.845Z,22.30
2022-08-11T06:35:12.770Z,22.50
2022-08-11T06:37:58.926Z,22.60
2022-08-11T06:41:10.979Z,22.80
2022-08-11T06:43:58.976Z,22.90
2022-08-11T06:46:39.296Z,23.00
2022-08-11T06:49:31.199Z,23.10
2022-08-11T06:52:02.918Z,23.20
2022-08-11T06:54:41.425Z,23.30
2022-08-11T06:57:32.468Z,23.50
2022-08-11T07:00:19.752Z,23.60
2022-08-11T07:02:54.391Z,23.80
2022-08-11T07:05:44.979Z,23.80
2022-08-11T07:09:11.926Z,23.90
2022-08-11T07:12:11.994Z,23.80
2022-08-11T07:15:05.157Z,24.00
2022-08-11T07:17:35.153Z,24.10
2022-08-11T07:20:24.102Z,24.30
2022-08-11T07:23:35.637Z,24.50
2022-08-11T07:26:22.423Z,24.60
2022-08-11T07:28:58.069Z,24.80
2022-08-11T07:31:42.016Z,25.00
2022-08-11T07:34:24.119Z,25.20
2022-08-11T07:36:56.981Z,25.40
2022-08-11T07:39:27.924Z,25.60
2022-08-11T07:41:58.220Z,25.80
2022-08-11T07:44:34.399Z,26.00
2022-08-11T07:47:20.689Z,26.20
2022-08-11T07:50:09.038Z,26.30
2022-08-11T07:52:38.301Z,26.60
2022-08-11T07:55:10.347Z,26.70
2022-08-11T07:58:16.273Z,26.90
2022-08-11T08:01:09.836Z,27.00
2022-08-11T08:03:58.425Z,27.20
2022-08-11T08:06:46.477Z,27.40
2022-08-11T08:09:35.599Z,27.50
2022-08-11T08:12:21.426Z,27.70
2022-08-11T08:15:07.301Z,27.80
2022-08-11T08:18:09.538Z,28.00
2022-08-11T08:20:50.715Z,28.20
2022-08-11T08:23:34.714Z,28.40
2022-08-11T08:26:05.655Z,28.50
2022-08-11T08:28:40.640Z,28.60
2022-08-11T08:31:07.720Z,28.80
2022-08-11T08:33:36.994Z,28.90
2022-08-11T08:36:12.287Z,29.00
2022-08-11T08:38:54.067Z,29.20
2022-08-11T08:41:27.841Z,29.20
2022-08-11T08:44:34.635Z,29.30
2022-08-11T08:46:54.910Z,29.40
2022-08-11T08:49:33.885Z,29.70
2022-08-11T08:52:42.682Z,29.70
2022-08-11T08:54:57.038Z,29.80
2022-08-11T08:57:27.469Z,29.90
2022-08-11T08:59:55.116Z,29.90
2022-08-11T09:02:34.501Z,30.10
2022-08-11T09:05:04.568Z,30.20
2022-08-11T09:07:39.008Z,30.30
2022-08-11T09:10:09.175Z,30.40
2022-08-11T09:12:39.225Z,30.40
2022-08-11T09:15:10.053Z,30.50
2022-08-11T09:17:45.867Z,30.60
2022-08-11T09:20:34.237Z,30.80
2022-08-11T09:26:49.650Z,30.90
2022-08-11T09:29:16.938Z,31.00
2022-08-11T09:31:44.384Z,31.10
2022-08-11T09:34:13.789Z,31.00
2022-08-11T09:37:01.760Z,31.20
2022-08-11T09:39:48.919Z,31.30
2022-08-11T09:42:23.084Z,31.40
2022-08-11T09:44:53.852Z,31.40
2022-08-11T09:47:31.676Z,31.50
2022-08-11T09:50:01.056Z,31.50
2022-08-11T09:52:32.250Z,31.60
2022-08-11T09:54:59.991Z,31.70
2022-08-11T09:57:45.486Z,31.80
2022-08-11T10:00:16.766Z,31.90
2022-08-11T10:02:49.224Z,31.90
2022-08-11T10:05:38.064Z,32.00
2022-08-11T10:08:07.352Z,32.00
2022-08-11T10:10:39.467Z,32.00
2022-08-11T10:14:03.836Z,32.00
2022-08-11T10:16:16.125Z,32.00
2022-08-11T10:18:52.549Z,32.00
2022-08-11T10:21:38.704Z,32.00
2022-08-11T10:24:25.575Z,32.10
2022-08-11T10:26:54.950Z,32.20
2022-08-11T10:29:50.244Z,32.20
2022-08-11T10:32:57.276Z,32.30
2022-08-11T10:35:31.687Z,32.40
2022-08-11T10:38:07.441Z,32.40
2022-08-11T10:40:40.139Z,32.50
2022-08-11T10:43:13.720Z,32.50
2022-08-11T10:46:03.376Z,32.60
2022-08-11T10:48:35.601Z,32.60
2022-08-11T10:51:15.023Z,32.60
2022-08-11T10:54:07.667Z,32.60
2022-08-11T10:56:58.486Z,32.60
2022-08-11T10:59:28.044Z,32.60
2022-08-11T11:01:55.538Z,32.60
2022-08-11T11:04:41.077Z,32.70
2022-08-11T11:07:20.592Z,32.70
2022-08-11T11:10:11.573Z,32.80
2022-08-11T11:12:56.980Z,32.80
2022-08-11T11:15:45.383Z,32.80
2022-08-11T11:18:14.964Z,32.80
2022-08-11T11:21:04.469Z,32.80
2022-08-11T11:23:56.117Z,32.80
2022-08-11T11:26:32.124Z,32.90
2022-08-11T11:29:15.194Z,32.80
2022-08-11T11:32:10.269Z,32.90
2022-08-11T11:35:02.017Z,32.80
2022-08-11T11:37:33.671Z,32.80
2022-08-11T11:40:02.329Z,32.70
2022-08-11T11:42:29.883Z,32.80
2022-08-11T11:45:01.195Z,32.80
2022-08-11T11:47:29.706Z,32.80
2022-08-11T11:49:57.884Z,32.80
2022-08-11T11:52:25.211Z,32.80
2022-08-11T11:54:56.099Z,32.80
2022-08-11T11:57:59.087Z,32.80
2022-08-11T12:00:49.363Z,32.90
2022-08-11T12:03:17.976Z,32.90
2022-08-11T12:05:45.899Z,32.80
2022-08-11T12:08:18.059Z,32.90
2022-08-11T12:11:12.617Z,33.00
2022-08-11T12:13:45.945Z,32.90
2022-08-11T12:16:35.015Z,33.00
2022-08-11T12:19:03.922Z,33.00
2022-08-11T12:21:31.788Z,33.00
2022-08-11T12:24:20.356Z,33.10
2022-08-11T12:27:14.713Z,33.00
2022-08-11T12:29:35.769Z,33.00
2022-08-11T12:32:07.227Z,33.10
2022-08-11T12:34:34.247Z,33.00
2022-08-11T12:37:05.744Z,33.00
2022-08-11T12:40:16.701Z,32.90
2022-08-11T12:43:08.341Z,32.90
2022-08-11T12:45:52.988Z,32.90
2022-08-11T12:49:00.459Z,32.70
2022-08-11T12:52:13.474Z,32.70
2022-08-11T12:54:56.344Z,32.70
2022-08-11T12:58:07.727Z,32.60
2022-08-11T13:00:53.452Z,32.60
2022-08-11T13:03:39.803Z,32.50
2022-08-11T13:06:08.282Z,32.40
2022-08-11T13:08:39.154Z,32.20
2022-08-11T13:11:54.564Z,32.20
2022-08-11T13:14:15.311Z,32.00
2022-08-11T13:17:02.367Z,32.00
2022-08-11T13:19:30.798Z,31.90
2022-08-11T13:21:58.184Z,31.90
2022-08-11T13:24:25.233Z,31.80
2022-08-11T13:26:52.345Z,31.80
2022-08-11T13:29:25.356Z,31.70
2022-08-11T13:31:56.531Z,31.70
2022-08-11T13:34:26.735Z,31.70
2022-08-11T13:36:56.936Z,31.60
2022-08-11T13:39:26.906Z,31.50
2022-08-11T13:41:56.587Z,31.50
2022-08-11T13:44:27.214Z,31.40
2022-08-11T13:47:08.748Z,31.40
2022-08-11T13:49:39.691Z,31.40
2022-08-11T13:52:13.066Z,31.30
2022-08-11T13:54:41.607Z,31.20
2022-08-11T13:58:07.707Z,31.10
2022-08-11T14:00:13.223Z,31.00
2022-08-11T14:02:55.550Z,30.90
2022-08-11T14:05:45.889Z,30.90
2022-08-11T14:08:37.118Z,30.70
2022-08-11T14:12:22.293Z,30.70
2022-08-11T14:14:16.633Z,30.50
2022-08-11T14:16:44.637Z,30.40
2022-08-11T14:19:14.448Z,30.30
2022-08-11T14:22:07.381Z,30.30
2022-08-11T14:24:42.752Z,30.20
2022-08-11T14:28:30.354Z,30.10
2022-08-11T14:30:04.689Z,30.10
2022-08-11T14:32:32.000Z,29.90
2022-08-11T14:34:58.947Z,29.90
2022-08-11T14:37:27.818Z,29.90
2022-08-11T14:40:03.707Z,29.90
2022-08-11T14:42:53.971Z,29.80
2022-08-11T14:45:57.539Z,29.80
2022-08-11T14:48:28.751Z,29.70
2022-08-11T14:50:56.841Z,29.60
2022-08-11T14:53:24.222Z,29.50
2022-08-11T14:56:10.716Z,29.50
2022-08-11T14:58:39.816Z,29.50
2022-08-11T15:01:26.903Z,29.40
2022-08-11T15:03:58.734Z,29.30
2022-08-11T15:06:43.000Z,29.30
2022-08-11T15:09:09.924Z,29.20
2022-08-11T15:11:55.935Z,29.20
2022-08-11T15:14:42.289Z,29.10
2022-08-11T15:17:10.185Z,29.20
2022-08-11T15:19:59.853Z,29.10
2022-08-11T15:22:56.323Z,29.10
2022-08-11T15:25:23.686Z,29.10
2022-08-11T15:28:13.220Z,29.10
2022-08-11T15:30:59.429Z,29.10
2022-08-11T15:33:47.312Z,29.10
2022-08-11T15:36:33.707Z,29.00
2022-08-11T15:39:07.483Z,29.00
2022-08-11T15:42:06.481Z,29.00
2022-08-11T15:45:03.515Z,28.90
2022-08-11T15:47:38.856Z,28.90
2022-08-11T15:50:14.290Z,28.80
2022-08-11T15:52:55.757Z,28.80
2022-08-11T15:55:24.259Z,28.80
2022-08-11T15:58:12.290Z,28.70
2022-08-11T16:01:04.370Z,28.70
2022-08-11T16:04:07.300Z,28.60
2022-08-11T16:06:56.344Z,28.60
2022-08-11T16:09:47.508Z,28.60
2022-08-11T16:13:03.224Z,28.50
2022-08-11T16:15:55.636Z,28.50
2022-08-11T16:18:43.392Z,28.50
2022-08-11T16:21:34.245Z,28.40
2022-08-11T16:24:06.161Z,28.40
2022-08-11T16:27:10.439Z,28.40
2022-08-11T16:29:26.762Z,28.40
2022-08-11T16:32:15.036Z,28.40
2022-08-11T16:35:02.849Z,28.30
2022-08-11T16:37:52.260Z,28.30
2022-08-11T16:40:22.610Z,28.30
2022-08-11T16:43:11.000Z,28.20
2022-08-11T16:45:59.097Z,28.20
2022-08-11T16:48:35.483Z,28.10
2022-08-11T16:51:05.051Z,28.10
2022-08-11T16:54:00.246Z,28.10
2022-08-11T16:56:36.286Z,28.10
2022-08-11T16:59:14.523Z,28.10
2022-08-11T17:02:12.669Z,28.10
2022-08-11T17:05:10.066Z,28.00
2022-08-11T17:08:01.260Z,28.00
2022-08-11T17:11:03.115Z,28.00
2022-08-11T17:13:39.840Z,27.90
2022-08-11T17:16:12.577Z,27.90
2022-08-11T17:18:59.003Z,27.80
2022-08-11T17:22:06.050Z,27.80
2022-08-11T17:24:37.141Z,27.70
2022-08-11T17:27:07.644Z,27.80
2022-08-11T17:29:54.735Z,27.70
2022-08-11T17:32:56.893Z,27.70
2022-08-11T17:35:32.759Z,27.70
2022-08-11T17:38:18.124Z,27.70
2022-08-11T17:41:18.371Z,27.60
2022-08-11T17:44:11.370Z,27.60
2022-08-11T17:47:32.916Z,27.60
2022-08-11T17:50:16.244Z,27.60
2022-08-11T17:53:12.150Z,27.50
2022-08-11T17:55:58.522Z,27.50
2022-08-11T17:58:47.011Z,27.40
2022-08-11T18:01:15.900Z,27.40
2022-08-11T18:03:56.232Z,27.30
2022-08-11T18:06:33.956Z,27.30
2022-08-11T18:09:21.685Z,27.30
2022-08-11T18:12:11.739Z,27.20
2022-08-11T18:15:01.047Z,27.20
2022-08-11T18:17:46.820Z,27.10
2022-08-11T18:20:32.275Z,27.10
2022-08-11T18:23:21.523Z,27.00
2022-08-11T18:26:28.413Z,27.00
2022-08-11T18:29:16.472Z,27.00
2022-08-11T18:32:06.783Z,26.90
2022-08-11T18:34:59.298Z,26.90
2022-08-11T18:37:49.731Z,26.80
2022-08-11T18:40:46.985Z,26.70
2022-08-11T18:43:35.603Z,26.70
2022-08-11T18:46:25.045Z,26.60
2022-08-11T18:50:01.751Z,26.60
2022-08-11T18:52:39.081Z,26.50
2022-08-11T18:55:33.097Z,26.50
2022-08-11T18:58:25.799Z,26.40
2022-08-11T19:01:15.193Z,26.30
2022-08-11T19:04:10.920Z,26.20
2022-08-11T19:06:59.925Z,26.20
2022-08-11T19:09:46.562Z,26.00
2022-08-11T19:12:33.352Z,25.90
2022-08-11T19:15:21.031Z,25.80
2022-08-11T19:18:07.702Z,25.80
2022-08-11T19:20:55.389Z,25.70
2022-08-11T19:23:51.522Z,25.70
2022-08-11T19:26:41.548Z,25.60
2022-08-11T19:30:07.015Z,25.50
2022-08-11T19:32:34.596Z,25.50
2022-08-11T19:35:21.285Z,25.40
2022-08-11T19:38:08.733Z,25.40
2022-08-11T19:40:57.449Z,25.20
2022-08-11T19:43:45.212Z,25.10
2022-08-11T19:46:31.584Z,25.10
2022-08-11T19:49:20.668Z,25.00
2022-08-11T19:52:08.081Z,25.00
2022-08-11T19:54:55.199Z,24.90
2022-08-11T19:57:42.632Z,24.90
2022-08-11T20:00:36.798Z,24.80
2022-08-11T20:03:27.226Z,24.70
2022-08-11T20:06:14.924Z,24.70
2022-08-11T20:09:02.613Z,24.60
2022-08-11T20:11:59.921Z,24.60
2022-08-11T20:14:49.408Z,24.50
2022-08-11T20:17:36.382Z,24.50
2022-08-11T20:20:26.152Z,24.40
2022-08-11T20:23:15.236Z,24.40
2022-08-11T20:26:13.998Z,24.30
2022-08-11T20:29:02.296Z,24.30
2022-08-11T20:31:48.900Z,24.20
2022-08-11T20:34:36.342Z,24.20
2022-08-11T20:37:24.904Z,24.20
2022-08-11T20:40:12.574Z,24.10
2022-08-11T20:42:59.591Z,24.10
2022-08-11T20:45:56.753Z,24.00
2022-08-11T20:48:44.076Z,24.00
2022-08-11T20:51:36.744Z,24.00
2022-08-11T20:54:43.390Z,23.90
2022-08-11T20:57:58.873Z,23.80
2022-08-11T21:00:43.889Z,23.80
2022-08-11T21:03:36.446Z,23.80
2022-08-11T21:06:33.332Z,23.80
2022-08-11T21:09:23.793Z,23.70
2022-08-11T21:12:15.723Z,23.70
2022-08-11T21:15:04.953Z,23.70
2022-08-11T21:18:06.125Z,23.70
2022-08-11T21:20:57.840Z,23.70
2022-08-11T21:23:49.439Z,23.60
2022-08-11T21:26:37.029Z,23.50
2022-08-11T21:29:25.799Z,23.50
2022-08-11T21:32:12.617Z,23.50
2022-08-11T21:35:01.811Z,23.40
2022-08-11T21:37:50.278Z,23.40
2022-08-11T21:40:38.981Z,23.40
2022-08-11T21:43:25.105Z,23.30
2022-08-11T21:46:12.074Z,23.30
2022-08-11T21:48:59.313Z,23.30
2022-08-11T21:51:44.936Z,23.20
2022-08-11T21:54:31.134Z,23.10
2022-08-11T21:57:17.875Z,23.20
2022-08-11T22:00:12.138Z,23.10
2022-08-11T22:02:58.879Z,23.10
2022-08-11T22:05:48.734Z,23.00
2022-08-11T22:08:34.399Z,23.00
2022-08-11T22:11:32.297Z,23.00
2022-08-11T22:14:22.620Z,23.00
2022-08-11T22:17:08.607Z,22.90
2022-08-11T22:19:57.946Z,22.90
2022-08-11T22:22:52.345Z,22.90
2022-08-11T22:25:51.663Z,22.80
2022-08-11T22:28:40.407Z,22.80
2022-08-11T22:31:30.683Z,22.80
2022-08-11T22:34:16.365Z,22.70
2022-08-11T22:37:03.151Z,22.70
2022-08-11T22:39:59.804Z,22.70
2022-08-11T22:42:49.983Z,22.60
2022-08-11T22:45:36.030Z,22.60
2022-08-11T22:48:24.139Z,22.50
2022-08-11T22:51:11.063Z,22.50
2022-08-11T22:53:59.142Z,22.40
2022-08-11T22:56:48.205Z,22.40
2022-08-11T22:59:35.438Z,22.30
2022-08-11T23:02:23.195Z,22.30
2022-08-11T23:05:09.103Z,22.20
2022-08-11T23:07:57.839Z,22.20
2022-08-11T23:10:44.982Z,22.10
2022-08-11T23:13:31.495Z,22.10
2022-08-11T23:16:17.657Z,22.00
2022-08-11T23:19:03.966Z,22.00
2022-08-11T23:21:50.094Z,22.00
2022-08-11T23:24:36.891Z,21.90
2022-08-11T23:27:24.739Z,21.90
2022-08-11T23:30:13.613Z,21.80
2022-08-11T23:33:06.920Z,21.70
2022-08-11T23:35:56.490Z,21.70
2022-08-11T23:38:43.774Z,21.70
2022-08-11T23:41:33.142Z,21.60
2022-08-11T23:44:20.858Z,21.60
2022-08-11T23:47:12.789Z,21.50
2022-08-11T23:49:58.873Z,21.50
2022-08-11T23:52:47.064Z,21.50
2022-08-11T23:55:32.795Z,21.40
2022-08-11T23:58:18.135Z,21.40
